Adak, Alaska
Current Conditions -  °F | °C
As of 4:36 AM on Saturday 25 Oct 2014 (Local Time) from PADK Reporting Station
Scattered Clouds Scattered Clouds  
Wind Chill: 30°   Ceiling: Unl
Heat Index: 37°   Visibility: 10mi
Dew Point: 30°   Wind: 10mph
Humidity: 75%   Direction: 210°SSW
Pressure: 30.06"   Gusts: NA
Location:  51.88°N, 176.66°W
Report Text: PADK 251336Z AUTO 21009KT 10SM SCT049 03/M01 A3006 RMK AO1
Loading
Personal Weather Stations






























Interactive Weather Map
Tropical Storm Tracking
New forecast layout! Learn more

10-Day Weather Forecast

Advertisements
Track Severe Weather on mobile